createdAt,value
2018-07-07T00:00:24.190Z,101877.94
2018-07-07T00:01:29.637Z,101871.52
2018-07-07T00:02:35.702Z,101875.64
2018-07-07T00:03:41.122Z,101878.64
2018-07-07T00:04:46.597Z,101876.83
2018-07-07T00:05:52.013Z,101876.55
2018-07-07T00:06:57.846Z,101882.06
2018-07-07T00:08:03.326Z,101874.06
2018-07-07T00:09:08.826Z,101882.36
2018-07-07T00:10:15.259Z,101877.43
2018-07-07T00:11:20.725Z,101881.02
2018-07-07T00:12:26.129Z,101879.08
2018-07-07T00:13:31.653Z,101879.14
2018-07-07T00:14:37.139Z,101883.49
2018-07-07T00:15:42.600Z,101875.78
2018-07-07T00:16:48.076Z,101879.14
2018-07-07T00:17:53.886Z,101881.47
2018-07-07T00:18:59.314Z,101883.98
2018-07-07T00:20:04.854Z,101882.40
2018-07-07T00:21:10.322Z,101887.17
2018-07-07T00:22:15.524Z,101878.63
2018-07-07T00:23:21.079Z,101880.66
2018-07-07T00:24:26.553Z,101880.34
2018-07-07T00:25:32.061Z,101885.95
2018-07-07T00:26:37.503Z,101889.88
2018-07-07T00:27:43.573Z,101886.30
2018-07-07T00:28:49.136Z,101888.34
2018-07-07T00:29:54.572Z,101885.27
2018-07-07T00:31:00.083Z,101888.69
2018-07-07T00:32:05.785Z,101887.14
2018-07-07T00:33:11.219Z,101887.63
2018-07-07T00:34:16.902Z,101888.50
2018-07-07T00:35:22.366Z,101892.81
2018-07-07T00:36:27.854Z,101889.27
2018-07-07T00:37:33.581Z,101891.53
2018-07-07T00:38:38.976Z,101896.16
2018-07-07T00:39:44.399Z,101900.58
2018-07-07T00:40:49.881Z,101897.22
2018-07-07T00:41:55.369Z,101896.05
2018-07-07T00:43:00.799Z,101895.77
2018-07-07T00:44:06.377Z,101901.20
2018-07-07T00:45:11.824Z,101897.02
2018-07-07T00:46:17.265Z,101898.31
2018-07-07T00:47:22.731Z,101896.19
2018-07-07T00:48:28.195Z,101898.01
2018-07-07T00:49:33.674Z,101894.14
2018-07-07T00:50:39.129Z,101893.38
2018-07-07T00:51:44.557Z,101895.56
2018-07-07T00:52:49.988Z,101894.62
2018-07-07T00:53:55.466Z,101893.27
2018-07-07T00:55:01.097Z,101889.38
2018-07-07T00:56:06.565Z,101892.77
2018-07-07T00:57:12.006Z,101889.77
2018-07-07T00:58:17.682Z,101890.55
2018-07-07T00:59:23.144Z,101885.95
2018-07-07T01:00:53.970Z,101891.77
2018-07-07T01:01:59.682Z,101892.68
2018-07-07T01:03:05.346Z,101898.31
2018-07-07T01:04:10.814Z,101887.52
2018-07-07T01:05:33.448Z,101888.31
2018-07-07T01:06:38.974Z,101893.77
2018-07-07T01:07:44.414Z,101889.80
2018-07-07T01:08:49.851Z,101894.92
2018-07-07T01:09:55.321Z,101895.13
2018-07-07T01:11:01.261Z,101897.89
2018-07-07T01:12:06.695Z,101896.77
2018-07-07T01:13:12.222Z,101898.62
2018-07-07T01:14:17.629Z,101897.45
2018-07-07T01:15:23.098Z,101898.44
2018-07-07T01:16:28.701Z,101898.89
2018-07-07T01:17:34.164Z,101898.50
2018-07-07T01:18:39.588Z,101898.92
2018-07-07T01:19:45.070Z,101896.41
2018-07-07T01:20:50.566Z,101900.63
2018-07-07T01:21:56.919Z,101898.52
2018-07-07T01:23:02.080Z,101895.88
2018-07-07T01:24:07.466Z,101895.41
2018-07-07T01:25:12.974Z,101897.45
2018-07-07T01:26:18.438Z,101903.38
2018-07-07T01:27:23.878Z,101904.58
2018-07-07T01:28:29.318Z,101904.14
2018-07-07T01:29:34.901Z,101903.27
2018-07-07T01:30:40.352Z,101898.45
2018-07-07T01:31:45.462Z,101906.05
2018-07-07T01:32:50.814Z,101898.31
2018-07-07T01:33:56.254Z,101905.18
2018-07-07T01:35:01.447Z,101894.87
2018-07-07T01:36:07.725Z,101897.31
2018-07-07T01:37:13.349Z,101888.70
2018-07-07T01:38:19.027Z,101895.96
2018-07-07T01:39:24.412Z,101897.61
2018-07-07T01:40:29.840Z,101890.83
2018-07-07T01:41:35.545Z,101891.34
2018-07-07T01:42:41.049Z,101900.41
2018-07-07T01:43:46.457Z,101894.75
2018-07-07T01:44:51.872Z,101890.75
2018-07-07T01:45:56.997Z,101900.95
2018-07-07T01:47:02.785Z,101899.66
2018-07-07T01:48:08.246Z,101898.31
2018-07-07T01:49:13.681Z,101902.72
2018-07-07T01:50:19.145Z,101902.77
2018-07-07T01:51:24.567Z,101901.59
2018-07-07T01:52:30.113Z,101906.66
2018-07-07T01:53:35.532Z,101900.11
2018-07-07T01:54:40.962Z,101902.74
2018-07-07T01:55:46.453Z,101896.72
2018-07-07T01:56:51.885Z,101898.48
2018-07-07T01:57:57.361Z,101899.16
2018-07-07T01:59:02.807Z,101898.34
2018-07-07T02:00:08.557Z,101895.28
2018-07-07T02:01:13.973Z,101898.01
2018-07-07T02:02:19.376Z,101895.82
2018-07-07T02:03:24.812Z,101899.38
2018-07-07T02:04:30.234Z,101897.59
2018-07-07T02:05:35.657Z,101898.77
2018-07-07T02:06:41.072Z,101895.77
2018-07-07T02:07:46.567Z,101897.22
2018-07-07T02:08:51.981Z,101897.61
2018-07-07T02:09:57.413Z,101892.91
2018-07-07T02:11:02.841Z,101897.25
2018-07-07T02:12:08.322Z,101900.61
2018-07-07T02:13:14.187Z,101898.88
2018-07-07T02:14:19.577Z,101900.19
2018-07-07T02:15:25.125Z,101899.35
2018-07-07T02:16:30.579Z,101904.45
2018-07-07T02:17:35.997Z,101904.93
2018-07-07T02:18:41.556Z,101897.25
2018-07-07T02:19:46.994Z,101901.59
2018-07-07T02:20:52.494Z,101906.66
2018-07-07T02:21:57.954Z,101905.88
2018-07-07T02:23:03.375Z,101901.70
2018-07-07T02:24:08.813Z,101910.31
2018-07-07T02:25:14.736Z,101905.71
2018-07-07T02:26:20.158Z,101906.71
2018-07-07T02:27:25.597Z,101905.00
2018-07-07T02:28:31.017Z,101904.61
2018-07-07T02:29:36.442Z,101905.92
2018-07-07T02:30:42.033Z,101901.70
2018-07-07T02:31:47.473Z,101906.95
2018-07-07T02:32:52.934Z,101901.33
2018-07-07T02:33:58.449Z,101899.74
2018-07-07T02:35:03.980Z,101909.20
2018-07-07T02:36:09.806Z,101911.44
2018-07-07T02:37:15.306Z,101905.50
2018-07-07T02:38:20.742Z,101906.41
2018-07-07T02:39:26.238Z,101911.71
2018-07-07T02:40:31.688Z,101918.33
2018-07-07T02:41:37.126Z,101914.56
2018-07-07T02:42:42.565Z,101912.00
2018-07-07T02:43:48.032Z,101909.47
2018-07-07T02:44:53.477Z,101912.22
2018-07-07T02:45:58.913Z,101915.73
2018-07-07T02:47:04.374Z,101911.75
2018-07-07T02:48:09.837Z,101909.16
2018-07-07T02:49:15.722Z,101910.91
2018-07-07T02:50:21.175Z,101915.73
2018-07-07T02:51:26.820Z,101913.93
2018-07-07T02:52:32.294Z,101919.47
2018-07-07T02:53:37.698Z,101920.73
2018-07-07T02:54:43.170Z,101916.52
2018-07-07T02:55:48.601Z,101915.77
2018-07-07T02:56:54.076Z,101914.99
2018-07-07T02:57:59.485Z,101918.50
2018-07-07T02:59:04.922Z,101920.08
2018-07-07T03:00:10.359Z,101913.20
2018-07-07T03:01:16.010Z,101918.86
2018-07-07T03:02:21.635Z,101914.31
2018-07-07T03:03:27.229Z,101911.25
2018-07-07T03:04:32.545Z,101912.89
2018-07-07T03:05:38.010Z,101913.78
2018-07-07T03:06:43.430Z,101915.42
2018-07-07T03:07:48.881Z,101913.34
2018-07-07T03:08:54.406Z,101909.96
2018-07-07T03:09:59.857Z,101911.00
2018-07-07T03:11:05.269Z,101911.09
2018-07-07T03:12:10.741Z,101914.15
2018-07-07T03:13:16.214Z,101906.77
2018-07-07T03:14:21.692Z,101910.64
2018-07-07T03:15:27.138Z,101907.21
2018-07-07T03:16:32.604Z,101908.89
2018-07-07T03:17:39.602Z,101914.06
2018-07-07T03:18:45.171Z,101912.97
2018-07-07T03:19:50.619Z,101914.78
2018-07-07T03:20:56.029Z,101908.47
2018-07-07T03:22:01.492Z,101916.28
2018-07-07T03:23:06.952Z,101915.92
2018-07-07T03:24:12.406Z,101920.27
2018-07-07T03:25:17.845Z,101921.17
2018-07-07T03:26:23.297Z,101922.48
2018-07-07T03:27:28.725Z,101918.70
2018-07-07T03:28:33.895Z,101920.03
2018-07-07T03:29:39.359Z,101924.35
2018-07-07T03:30:44.829Z,101921.80
2018-07-07T03:31:50.273Z,101921.81
2018-07-07T03:32:55.824Z,101927.38
2018-07-07T03:34:01.402Z,101928.23
2018-07-07T03:35:06.938Z,101930.81
2018-07-07T03:36:12.545Z,101931.22
2018-07-07T03:37:18.019Z,101931.11
2018-07-07T03:38:23.437Z,101934.47
2018-07-07T03:39:29.095Z,101937.91
2018-07-07T03:40:34.653Z,101943.88
2018-07-07T03:41:40.094Z,101942.96
2018-07-07T03:42:45.572Z,101940.36
2018-07-07T03:43:51.022Z,101948.84
2018-07-07T03:44:56.454Z,101944.12
2018-07-07T03:46:01.929Z,101942.28
2018-07-07T03:47:07.442Z,101950.36
2018-07-07T03:48:12.901Z,101946.82
2018-07-07T03:49:18.382Z,101948.91
2018-07-07T03:50:23.959Z,101948.05
2018-07-07T03:51:29.457Z,101944.08
2018-07-07T03:52:34.888Z,101944.89
2018-07-07T03:53:40.359Z,101946.17
2018-07-07T03:54:45.880Z,101944.42
2018-07-07T03:55:51.471Z,101950.02
2018-07-07T03:56:56.952Z,101946.97
2018-07-07T03:58:02.393Z,101949.53
2018-07-07T03:59:07.841Z,101951.17
2018-07-07T04:00:13.596Z,101959.73
2018-07-07T04:01:19.034Z,101952.88
2018-07-07T04:02:24.474Z,101954.59
2018-07-07T04:03:29.909Z,101954.56
2018-07-07T04:04:35.593Z,101958.77
2018-07-07T04:05:41.219Z,101959.62
2018-07-07T04:06:46.679Z,101957.47
2018-07-07T04:07:52.118Z,101954.99
2018-07-07T04:08:57.559Z,101960.48
2018-07-07T04:10:03.053Z,101965.60
2018-07-07T04:11:09.150Z,101959.48
2018-07-07T04:12:14.606Z,101960.67
2018-07-07T04:13:20.022Z,101958.56
2018-07-07T04:14:25.492Z,101962.42
2018-07-07T04:15:31.165Z,101962.73
2018-07-07T04:16:36.657Z,101965.66
2018-07-07T04:17:42.093Z,101972.04
2018-07-07T04:18:47.549Z,101969.42
2018-07-07T04:19:52.994Z,101970.22
2018-07-07T04:20:58.538Z,101971.06
2018-07-07T04:22:04.160Z,101971.08
2018-07-07T04:23:09.687Z,101971.45
2018-07-07T04:24:15.634Z,101971.45
2018-07-07T04:25:21.223Z,101976.21
2018-07-07T04:26:26.699Z,101974.08
2018-07-07T04:27:32.678Z,101977.45
2018-07-07T04:28:38.102Z,101969.73
2018-07-07T04:29:43.545Z,101969.81
2018-07-07T04:30:49.019Z,101970.69
2018-07-07T04:31:54.505Z,101973.67
2018-07-07T04:33:00.077Z,101968.60
2018-07-07T04:34:05.496Z,101972.04
2018-07-07T04:35:11.085Z,101971.28
2018-07-07T04:36:16.602Z,101967.56
2018-07-07T04:37:22.017Z,101969.98
2018-07-07T04:38:27.500Z,101967.69
2018-07-07T04:39:32.960Z,101968.55
2018-07-07T04:40:38.411Z,101969.89
2018-07-07T04:41:43.841Z,101968.60
2018-07-07T04:42:49.230Z,101966.42
2018-07-07T04:43:55.049Z,101974.95
2018-07-07T04:45:00.482Z,101973.67
2018-07-07T04:46:05.970Z,101974.08
2018-07-07T04:47:11.398Z,101970.96
2018-07-07T04:48:17.082Z,101972.66
2018-07-07T04:49:22.492Z,101977.29
2018-07-07T04:50:27.939Z,101974.31
2018-07-07T04:51:33.363Z,101971.73
2018-07-07T04:52:39.320Z,101976.86
2018-07-07T04:53:44.743Z,101976.47
2018-07-07T04:54:50.154Z,101978.99
2018-07-07T04:55:55.561Z,101975.51
2018-07-07T04:57:00.977Z,101973.19
2018-07-07T04:58:06.490Z,101974.86
2018-07-07T04:59:11.938Z,101976.58
2018-07-07T05:00:17.387Z,101981.22
2018-07-07T05:01:22.832Z,101978.94
2018-07-07T05:02:28.269Z,101971.11
2018-07-07T05:03:34.026Z,101979.55
2018-07-07T05:04:39.510Z,101985.00
2018-07-07T05:05:44.875Z,101979.84
2018-07-07T05:06:50.312Z,101989.68
2018-07-07T05:07:55.914Z,101989.53
2018-07-07T05:09:01.203Z,101989.75
2018-07-07T05:10:06.723Z,101983.59
2018-07-07T05:11:12.162Z,101990.97
2018-07-07T05:12:17.637Z,101990.47
2018-07-07T05:13:23.055Z,101989.84
2018-07-07T05:14:28.733Z,101992.77
2018-07-07T05:15:34.347Z,102001.52
2018-07-07T05:16:39.798Z,101998.55
2018-07-07T05:17:45.305Z,102000.98
2018-07-07T05:18:50.746Z,102000.27
2018-07-07T05:19:56.193Z,102000.18
2018-07-07T05:21:01.778Z,102000.56
2018-07-07T05:22:07.213Z,102004.66
2018-07-07T05:23:12.665Z,102005.80
2018-07-07T05:24:18.154Z,102006.96
2018-07-07T05:25:23.625Z,102007.58
2018-07-07T05:26:29.499Z,102007.00
2018-07-07T05:27:34.973Z,102008.98
2018-07-07T05:28:40.521Z,102006.10
2018-07-07T05:29:45.965Z,102007.09
2018-07-07T05:30:51.416Z,102005.95
2018-07-07T05:31:56.861Z,102008.82
2018-07-07T05:33:02.345Z,102003.13
2018-07-07T05:34:08.186Z,102008.44
2018-07-07T05:35:14.060Z,102005.11
2018-07-07T05:36:19.612Z,102008.43
2018-07-07T05:37:24.749Z,102006.16
2018-07-07T05:38:30.102Z,102005.77
2018-07-07T05:39:35.566Z,102006.39
2018-07-07T05:40:41.213Z,102002.09
2018-07-07T05:41:46.777Z,102006.39
2018-07-07T05:42:52.258Z,102003.89
2018-07-07T05:43:57.701Z,102005.30
2018-07-07T05:45:03.154Z,102007.73
2018-07-07T05:46:08.717Z,102003.13
2018-07-07T05:47:14.150Z,102009.86
2018-07-07T05:48:19.700Z,102006.81
2018-07-07T05:49:26.674Z,102003.66
2018-07-07T05:50:32.134Z,101999.66
2018-07-07T05:51:37.580Z,102002.45
2018-07-07T05:52:43.014Z,101997.70
2018-07-07T05:53:48.457Z,102008.16
2018-07-07T05:54:53.902Z,102008.53
2018-07-07T05:55:59.346Z,102008.03
2018-07-07T05:57:04.911Z,102010.16
2018-07-07T05:58:10.406Z,102007.86
2018-07-07T05:59:15.869Z,102012.96
2018-07-07T06:00:21.310Z,102018.94
2018-07-07T06:01:26.770Z,102012.91
2018-07-07T06:02:32.375Z,102015.30
2018-07-07T06:03:37.847Z,102013.88
2018-07-07T06:04:43.310Z,102018.40
2018-07-07T06:05:48.731Z,102015.67
2018-07-07T06:06:54.238Z,102013.75
2018-07-07T06:07:59.681Z,102015.05
2018-07-07T06:09:05.962Z,102020.86
2018-07-07T06:10:11.376Z,102022.56
2018-07-07T06:11:16.820Z,102022.35
2018-07-07T06:12:22.456Z,102022.09
2018-07-07T06:13:28.045Z,102018.95
2018-07-07T06:14:33.594Z,102021.00
2018-07-07T06:15:39.082Z,102022.99
2018-07-07T06:16:44.534Z,102021.55
2018-07-07T06:17:50.365Z,102020.86
2018-07-07T06:18:55.798Z,102030.59
2018-07-07T06:20:01.265Z,102022.16
2018-07-07T06:21:07.241Z,102020.64
2018-07-07T06:22:12.725Z,102018.68
2018-07-07T06:23:18.304Z,102025.91
2018-07-07T06:24:24.229Z,102021.89
2018-07-07T06:25:29.817Z,102025.95
2018-07-07T06:26:35.322Z,102026.00
2018-07-07T06:27:40.710Z,102025.36
2018-07-07T06:28:46.177Z,102019.49
2018-07-07T06:29:51.615Z,102022.33
2018-07-07T06:30:57.044Z,102029.13
2018-07-07T06:32:02.482Z,102023.66
2018-07-07T06:33:07.922Z,102020.55
2018-07-07T06:34:13.368Z,102024.67
2018-07-07T06:35:19.053Z,102021.98
2018-07-07T06:36:24.597Z,102024.62
2018-07-07T06:37:30.024Z,102015.22
2018-07-07T06:38:35.569Z,102018.50
2018-07-07T06:39:41.141Z,102021.51
2018-07-07T06:40:46.461Z,102019.38
2018-07-07T06:41:51.989Z,102016.09
2018-07-07T06:42:57.426Z,102019.70
2018-07-07T06:44:03.055Z,102023.77
2018-07-07T06:45:08.509Z,102020.20
2018-07-07T06:46:14.617Z,102022.97
2018-07-07T06:47:20.076Z,102023.59
2018-07-07T06:48:25.558Z,102019.38
2018-07-07T06:49:31.074Z,102023.33
2018-07-07T06:50:36.490Z,102021.27
2018-07-07T06:51:42.119Z,102014.48
2018-07-07T06:52:47.600Z,102019.47
2018-07-07T06:53:53.116Z,102020.97
2018-07-07T06:54:58.549Z,102020.20
2018-07-07T06:56:04.046Z,102023.31
2018-07-07T06:57:09.873Z,102020.98
2018-07-07T06:58:15.285Z,102021.97
2018-07-07T06:59:20.910Z,102023.22
2018-07-07T07:00:26.597Z,102023.79
2018-07-07T07:01:32.073Z,102025.14
2018-07-07T07:02:37.622Z,102028.52
2018-07-07T07:03:43.268Z,102023.22
2018-07-07T07:04:49.209Z,102027.69
2018-07-07T07:05:54.614Z,102031.94
2018-07-07T07:07:00.059Z,102025.61
2018-07-07T07:08:05.487Z,102026.85
2018-07-07T07:09:11.738Z,102029.30
2018-07-07T07:10:18.540Z,102036.47
2018-07-07T07:11:23.962Z,102033.56
2018-07-07T07:12:29.613Z,102034.54
2018-07-07T07:13:35.363Z,102037.88
2018-07-07T07:14:40.938Z,102033.92
2018-07-07T07:15:46.585Z,102040.25
2018-07-07T07:16:52.166Z,102037.08
2018-07-07T07:17:57.961Z,102041.61
2018-07-07T07:19:03.658Z,102034.73
2018-07-07T07:20:09.126Z,102032.98
2018-07-07T07:21:14.613Z,102036.70
2018-07-07T07:22:20.025Z,102034.83
2018-07-07T07:23:25.505Z,102034.42
2018-07-07T07:24:30.957Z,102034.94
2018-07-07T07:25:36.556Z,102036.30
2018-07-07T07:26:42.666Z,102033.58
2018-07-07T07:27:48.255Z,102040.41
2018-07-07T07:28:53.906Z,102039.25
2018-07-07T07:29:59.497Z,102041.13
2018-07-07T07:31:04.965Z,102041.33
2018-07-07T07:32:10.593Z,102044.22
2018-07-07T07:33:16.188Z,102040.48
2018-07-07T07:34:21.735Z,102042.97
2018-07-07T07:35:27.286Z,102043.20
2018-07-07T07:36:44.084Z,102045.38
2018-07-07T07:37:49.621Z,102041.70
2018-07-07T07:38:55.129Z,102046.09
2018-07-07T07:40:00.641Z,102047.89
2018-07-07T07:41:06.104Z,102046.73
2018-07-07T07:42:11.574Z,102043.73
2018-07-07T07:43:17.057Z,102049.50
2018-07-07T07:44:22.291Z,102046.96
2018-07-07T07:45:27.830Z,102052.45
2018-07-07T07:46:33.655Z,102049.77
2018-07-07T07:47:39.065Z,102046.96
2018-07-07T07:48:44.510Z,102043.00
2018-07-07T07:49:50.130Z,102047.69
2018-07-07T07:50:55.617Z,102049.42
2018-07-07T07:52:01.078Z,102052.34
2018-07-07T07:53:06.722Z,102051.86
2018-07-07T07:54:12.338Z,102052.71
2018-07-07T07:55:18.793Z,102045.23
2018-07-07T07:56:24.340Z,102043.04
2018-07-07T07:57:29.945Z,102039.80
2018-07-07T07:58:35.525Z,102039.20
2018-07-07T07:59:41.164Z,102041.23
2018-07-07T08:00:46.918Z,102041.01
2018-07-07T08:01:52.474Z,102039.34
2018-07-07T08:02:57.917Z,102035.03
2018-07-07T08:04:03.441Z,102037.42
2018-07-07T08:05:08.961Z,102032.74
2018-07-07T08:06:14.441Z,102035.84
2018-07-07T08:07:20.136Z,102037.36
2018-07-07T08:08:25.589Z,102040.67
2018-07-07T08:09:31.010Z,102042.94
2018-07-07T08:10:36.429Z,102034.21
2018-07-07T08:11:41.881Z,102037.97
2018-07-07T08:12:47.373Z,102037.13
2018-07-07T08:13:52.929Z,102034.03
2018-07-07T08:14:58.333Z,102031.83
2018-07-07T08:16:03.997Z,102031.80
2018-07-07T08:17:09.541Z,102031.34
2018-07-07T08:18:15.549Z,102034.01
2018-07-07T08:19:21.088Z,102035.00
2018-07-07T08:20:26.618Z,102038.64
2018-07-07T08:21:32.096Z,102037.00
2018-07-07T08:22:37.564Z,102049.91
2018-07-07T08:23:43.261Z,102043.65
2018-07-07T08:24:48.673Z,102041.63
2018-07-07T08:25:54.153Z,102038.50
2018-07-07T08:26:59.731Z,102040.00
2018-07-07T08:28:05.247Z,102043.09
2018-07-07T08:29:10.761Z,102052.91
2018-07-07T08:30:16.357Z,102048.53
2018-07-07T08:31:21.938Z,102050.78
2018-07-07T08:32:27.471Z,102054.69
2018-07-07T08:33:32.986Z,102045.91
2018-07-07T08:34:39.025Z,102050.64
2018-07-07T08:35:44.695Z,102045.77
2018-07-07T08:36:50.151Z,102046.57
2018-07-07T08:37:55.638Z,102052.12
2018-07-07T08:39:01.210Z,102044.97
2018-07-07T08:40:06.774Z,102044.48
2018-07-07T08:41:15.415Z,102041.56
2018-07-07T08:42:21.280Z,102046.23
2018-07-07T08:43:26.800Z,102041.84
2018-07-07T08:44:32.253Z,102044.52
2018-07-07T08:45:37.825Z,102048.73
2018-07-07T08:46:43.342Z,102049.24
2018-07-07T08:47:48.830Z,102045.03
2018-07-07T08:48:54.326Z,102044.66
2018-07-07T08:49:59.853Z,102049.61
2018-07-07T08:51:05.409Z,102048.30
2018-07-07T08:52:10.818Z,102043.02
2018-07-07T08:53:16.234Z,102045.53
2018-07-07T08:54:21.993Z,102045.83
2018-07-07T08:55:27.493Z,102047.27
2018-07-07T08:56:33.296Z,102048.23
2018-07-07T08:57:38.849Z,102048.97
2018-07-07T08:58:44.457Z,102043.55
2018-07-07T08:59:49.973Z,102046.70
2018-07-07T09:00:55.227Z,102049.30
2018-07-07T09:02:00.754Z,102039.41
2018-07-07T09:03:07.561Z,102045.18
2018-07-07T09:04:13.164Z,102040.88
2018-07-07T09:05:18.633Z,102041.75
2018-07-07T09:06:23.969Z,102036.42
2018-07-07T09:07:29.549Z,102039.36
2018-07-07T09:08:35.076Z,102040.96
2018-07-07T09:09:40.498Z,102034.05
2018-07-07T09:10:46.062Z,102033.22
2018-07-07T09:11:51.757Z,102037.02
2018-07-07T09:12:57.366Z,102037.39
2018-07-07T09:14:02.846Z,102035.31
2018-07-07T09:15:08.982Z,102029.36
2018-07-07T09:16:14.477Z,102030.46
2018-07-07T09:17:19.888Z,102035.39
2018-07-07T09:18:25.345Z,102025.77
2018-07-07T09:19:30.785Z,102029.98
2018-07-07T09:20:36.214Z,102034.83
2018-07-07T09:21:41.651Z,102031.05
2018-07-07T09:22:47.125Z,102027.27
2018-07-07T09:23:52.650Z,102028.17
2018-07-07T09:24:58.074Z,102028.30
2018-07-07T09:26:03.547Z,102023.40
2018-07-07T09:27:09.042Z,102031.16
2018-07-07T09:28:14.534Z,102020.16
2018-07-07T09:29:19.974Z,102024.31
2018-07-07T09:30:25.395Z,102020.08
2018-07-07T09:31:30.850Z,102023.31
2018-07-07T09:32:36.544Z,102023.17
2018-07-07T09:33:42.087Z,102015.97
2018-07-07T09:34:47.350Z,102023.62
2018-07-07T09:35:53.241Z,102014.55
2018-07-07T09:36:58.766Z,102014.06
2018-07-07T09:38:04.305Z,102013.51
2018-07-07T09:39:09.759Z,102014.81
2018-07-07T09:40:15.176Z,102015.02
2018-07-07T09:41:20.649Z,102017.64
2018-07-07T09:42:26.138Z,102018.77
2018-07-07T09:43:34.753Z,102014.61
2018-07-07T09:44:41.597Z,102022.20
2018-07-07T09:45:47.055Z,102013.63
2018-07-07T09:46:52.570Z,102015.89
2018-07-07T09:47:58.005Z,102008.52
2018-07-07T09:49:03.441Z,102012.73
2018-07-07T09:50:08.909Z,102010.41
2018-07-07T09:51:14.330Z,102008.31
2018-07-07T09:52:19.828Z,102012.71
2018-07-07T09:53:25.233Z,102014.33
2018-07-07T09:54:30.476Z,102012.31
2018-07-07T09:55:35.846Z,102014.22
2018-07-07T09:56:41.277Z,102016.39
2018-07-07T09:57:46.728Z,102014.42
2018-07-07T09:58:52.145Z,102012.07
2018-07-07T09:59:57.622Z,102011.05
2018-07-07T10:01:03.074Z,102012.51
2018-07-07T10:02:08.846Z,102011.53
2018-07-07T10:03:14.325Z,102009.97
2018-07-07T10:04:19.973Z,102011.45
2018-07-07T10:05:25.247Z,102010.53
2018-07-07T10:06:30.983Z,102009.57
2018-07-07T10:07:36.439Z,102015.14
2018-07-07T10:08:41.953Z,102012.42
2018-07-07T10:09:47.365Z,102011.55
2018-07-07T10:10:52.813Z,102006.37
2018-07-07T10:11:58.377Z,102002.10
2018-07-07T10:13:04.360Z,102000.86
2018-07-07T10:14:09.901Z,102008.70
2018-07-07T10:15:15.351Z,102009.95
2018-07-07T10:16:20.797Z,102006.55
2018-07-07T10:17:26.215Z,102011.26
2018-07-07T10:18:31.673Z,102007.80
2018-07-07T10:19:37.209Z,102011.04
2018-07-07T10:20:42.702Z,102025.50
2018-07-07T10:21:48.120Z,102017.28
2018-07-07T10:22:54.086Z,102018.75
2018-07-07T10:23:59.545Z,102014.78
2018-07-07T10:25:05.123Z,102018.94
2018-07-07T10:26:10.588Z,102015.52
2018-07-07T10:27:16.000Z,102007.20
2018-07-07T10:28:21.906Z,102009.12
2018-07-07T10:29:27.549Z,102016.33
2018-07-07T10:30:32.986Z,102011.22
2018-07-07T10:31:38.428Z,102012.86
2018-07-07T10:32:44.018Z,102016.39
2018-07-07T10:33:49.732Z,102011.61
2018-07-07T10:34:55.045Z,102021.98
2018-07-07T10:36:00.638Z,102023.94
2018-07-07T10:37:06.410Z,102015.99
2018-07-07T10:38:11.941Z,102014.98
2018-07-07T10:39:17.846Z,102017.36
2018-07-07T10:40:23.262Z,102017.89
2018-07-07T10:41:28.844Z,102024.84
2018-07-07T10:42:34.319Z,102021.81
2018-07-07T10:43:39.825Z,102020.96
2018-07-07T10:44:45.495Z,102024.79
2018-07-07T10:45:50.967Z,102015.69
2018-07-07T10:46:56.315Z,102021.23
2018-07-07T10:48:01.778Z,102011.22
2018-07-07T10:49:07.250Z,102029.47
2018-07-07T10:50:13.062Z,102019.82
2018-07-07T10:51:18.664Z,102029.94
2018-07-07T10:52:24.152Z,102023.97
2018-07-07T10:53:29.653Z,102022.11
2018-07-07T10:54:35.090Z,102012.48
2018-07-07T10:55:40.515Z,102016.34
2018-07-07T10:56:45.973Z,102015.72
2018-07-07T10:57:51.785Z,102026.98
2018-07-07T10:58:57.198Z,102022.12
2018-07-07T11:00:02.638Z,102021.19
2018-07-07T11:01:08.104Z,102023.94
2018-07-07T11:02:13.521Z,102022.83
2018-07-07T11:03:18.982Z,102020.79
2018-07-07T11:04:24.410Z,102022.30
2018-07-07T11:05:30.246Z,102017.12
2018-07-07T11:06:35.675Z,102025.17
2018-07-07T11:07:41.129Z,102025.83
2018-07-07T11:08:46.590Z,102023.86
2018-07-07T11:09:52.040Z,102025.47
2018-07-07T11:10:57.599Z,102023.78
2018-07-07T11:12:03.101Z,102021.23
2018-07-07T11:13:08.554Z,102009.84
2018-07-07T11:14:14.021Z,102011.88
2018-07-07T11:15:19.474Z,102014.58
2018-07-07T11:16:24.962Z,102012.63
2018-07-07T11:17:30.399Z,102014.77
2018-07-07T11:18:35.810Z,102006.83
2018-07-07T11:19:41.226Z,102005.44
2018-07-07T11:20:46.664Z,102012.36
2018-07-07T11:21:52.206Z,102010.96
2018-07-07T11:22:57.750Z,102018.23
2018-07-07T11:24:03.259Z,102021.13
2018-07-07T11:25:08.680Z,102010.40
2018-07-07T11:26:14.093Z,102017.61
2018-07-07T11:27:19.585Z,102016.21
2018-07-07T11:28:25.012Z,102014.99
2018-07-07T11:29:30.424Z,102011.81
2018-07-07T11:30:35.874Z,102009.94
2018-07-07T11:31:41.304Z,102009.77
2018-07-07T11:32:46.876Z,102000.70
2018-07-07T11:33:52.430Z,102009.39
2018-07-07T11:34:57.849Z,102008.30
2018-07-07T11:36:03.345Z,102003.50
2018-07-07T11:37:08.783Z,102008.95
2018-07-07T11:38:14.265Z,101999.00
2018-07-07T11:39:20.201Z,102006.59
2018-07-07T11:40:25.757Z,102007.89
2018-07-07T11:41:31.317Z,102012.19
2018-07-07T11:42:37.104Z,102010.86
2018-07-07T11:43:42.705Z,102007.39
2018-07-07T11:44:48.273Z,102003.34
2018-07-07T11:45:53.798Z,102002.44
2018-07-07T11:46:59.506Z,102007.97
2018-07-07T11:48:05.198Z,102005.10
2018-07-07T11:49:10.306Z,102000.36
2018-07-07T11:50:15.709Z,102008.23
2018-07-07T11:51:21.086Z,102000.56
2018-07-07T11:52:26.551Z,102004.58
2018-07-07T11:53:31.645Z,102010.56
2018-07-07T11:54:36.984Z,102015.66
2018-07-07T11:55:42.393Z,102010.94
2018-07-07T11:56:47.802Z,102012.47
2018-07-07T11:57:53.305Z,102007.58
2018-07-07T11:58:58.741Z,102004.00
2018-07-07T12:00:04.358Z,102002.89
2018-07-07T12:01:09.883Z,102005.42
2018-07-07T12:02:15.477Z,102008.53
2018-07-07T12:03:21.126Z,102009.20
2018-07-07T12:04:26.635Z,102007.81
2018-07-07T12:05:32.074Z,102005.47
2018-07-07T12:06:37.578Z,102003.59
2018-07-07T12:07:43.113Z,102005.80
2018-07-07T12:08:48.665Z,102003.55
2018-07-07T12:09:54.134Z,102008.86
2018-07-07T12:10:59.632Z,102011.52
2018-07-07T12:12:05.175Z,102007.72
2018-07-07T12:13:10.601Z,102008.88
2018-07-07T12:14:16.070Z,102006.96
2018-07-07T12:15:21.530Z,102011.98
2018-07-07T12:16:26.997Z,102010.78
2018-07-07T12:17:32.527Z,102007.52
2018-07-07T12:18:37.973Z,102005.11
2018-07-07T12:19:43.445Z,102000.50
2018-07-07T12:20:48.909Z,102002.71
2018-07-07T12:21:54.489Z,102006.09
2018-07-07T12:22:59.954Z,102000.09
2018-07-07T12:24:05.458Z,102009.23
2018-07-07T12:25:10.914Z,102008.26
2018-07-07T12:26:16.635Z,102006.22
2018-07-07T12:27:22.413Z,102000.17
2018-07-07T12:28:27.937Z,101997.17